KCLK

Details ICAO KCLK
Name CLINTON RGNL
Region United States
Timezone America/Chicago (UTC-6.0)
Plans Departing 1
Arriving 4
Stats Elevation 1,615 ft / 492 m (AMSL)
Location 35.539417° -98.933305°
Runways 2
Magnetic Variation 4.592° E
Sunrise 2017-12-12 13:37:21 UTC / 2017-12-12 07:37:21 Local
Sunset 2017-12-12 23:24:41 UTC / 2017-12-12 17:24:41 Local
Advertisement - Login to hide

Runways

ID Width Length Bearing (true) Bearing (mag) Surface Threshold Offset Overrun Length
13 245 ft / 75 m 1,417 ft / 432 m 135.69° 131.10° Grass 0 ft / 0 m 0 ft / 0 m
17 75 ft / 23 m 4,311 ft / 1,314 m 179.18° 174.59° Asphalt 0 ft / 0 m 0 ft / 0 m
31 245 ft / 75 m 1,417 ft / 432 m 315.69° 311.10° Grass 0 ft / 0 m 0 ft / 0 m
35 75 ft / 23 m 4,311 ft / 1,314 m 359.18° 354.59° Asphalt 0 ft / 0 m 0 ft / 0 m

Map

Weather


0- 5 10 15 20 25 30 35+ Temperature / ° C

Clouds and Precipitation
Forecast for 2017-12-12 12:00 UTC. Updated an hour ago

Ground ~20,000 ft ~40,000 ft Winds

METAR

KCLK 121035Z AUTO 00000KT 10SM CLR M02/M06 A3044 RMK AO2

TAF

Not found

Frequencies

Recorded 119.22 MHz AWOS
Approach 128.40 MHz FORT WORTH CNTR
Unicom 122.80 MHz CTAF/UNICOM
Warning: Do not use this data for real-world aviation or navigation. No guarantee of current accuracy is given.